Time;durP1;ratioP1;P1;durP2;ratioP2;P2;SDS_P1;SDS_P2;PMS_P1;PMS_P2;Temp;Humidity;BMP_temperature;BMP_pressure;BME280_temperature;BME280_humidity;BME280_pressure;Samples;Min_cycle;Max_cycle;Signal;HPM_P1;HPM_P2
2023/03/25 00:00:06;;;;;;;;;;;;;;;8.91;78.94;97574.44;5077798;28;19916;-82
2023/03/25 00:02:31;;;;;;;;;;;;;;;8.92;78.31;97570.72;5087071;28;19947;-83
2023/03/25 00:04:59;;;;;;;;;;;;;;;8.75;78.97;97569.41;5090225;28;19920;-83
2023/03/25 00:07:24;;;;;;;;;;;;;;;8.63;78.57;97580.31;5092858;28;20892;-84
2023/03/25 00:09:50;;;;;;;;;;;;;;;8.85;78.73;97575.53;5088424;28;20257;-83
2023/03/25 00:12:15;;;;;;;;;;;;;;;8.78;78.68;97567.00;5086070;28;19924;-83
2023/03/25 00:14:41;;;;;;;;;;;;;;;8.83;78.01;97566.22;5082356;28;19916;-83
2023/03/25 00:17:07;;;;;;;;;;;;;;;8.78;78.21;97576.88;5071530;28;19989;-83
2023/03/25 00:19:34;;;;;;;;;;;;;;;8.75;78.70;97575.53;5089324;28;19916;-83
2023/03/25 00:22:00;;;;;;;;;;;;;;;8.72;78.83;97570.75;5088437;28;19927;-83
2023/03/25 00:24:25;;;;;;;;;;;;;;;8.52;79.61;97577.94;5068530;28;20504;-82
2023/03/25 00:26:53;;;;;;;;;;;;;;;8.62;78.69;97567.31;5086360;28;20001;-83
2023/03/25 00:29:18;;;;;;;;;;;;;;;8.49;79.80;97575.81;5065288;28;19924;-82
2023/03/25 00:31:44;;;;;;;;;;;;;;;8.62;78.98;97577.94;5087496;28;20026;-83
2023/03/25 00:34:13;;;;;;;;;;;;;;;8.62;79.30;97570.75;5050312;28;20162;-83
2023/03/25 00:36:38;;;;;;;;;;;;;;;8.65;78.53;97569.44;5088319;28;19931;-83
2023/03/25 00:39:04;;;;;;;;;;;;;;;8.64;78.38;97573.16;5088754;28;19924;-83
2023/03/25 00:41:29;;;;;;;;;;;;;;;8.55;79.59;97577.41;5083779;28;19924;-83
2023/03/25 00:43:55;;;;;;;;;;;;;;;8.50;79.28;97580.84;5055802;28;19920;-83
2023/03/25 00:46:27;;;;;;;;;;;;;;;8.60;79.08;97583.53;5088631;28;19916;-83
2023/03/25 00:48:53;;;;;;;;;;;;;;;8.56;79.57;97571.81;5081747;28;19931;-83
2023/03/25 00:51:20;;;;;;;;;;;;;;;8.47;79.13;97583.25;5063247;28;19991;-83
2023/03/25 00:53:46;;;;;;;;;;;;;;;8.49;79.33;97581.94;5069405;28;19943;-83
2023/03/25 00:56:12;;;;;;;;;;;;;;;8.57;79.56;97581.41;5066250;28;20329;-83
2023/03/25 00:58:37;;;;;;;;;;;;;;;8.56;79.31;97581.66;5089826;28;19921;-83
2023/03/25 01:01:14;;;;;;;;;;;;;;;8.43;79.34;97572.34;5071149;28;20053;-83
2023/03/25 01:03:39;;;;;;;;;;;;;;;8.58;79.43;97577.69;5090369;28;19954;-83
2023/03/25 01:06:09;;;;;;;;;;;;;;;8.50;79.93;97580.06;5095677;28;19916;-83
2023/03/25 01:08:34;;;;;;;;;;;;;;;8.48;80.11;97582.97;5081511;28;20397;-83
2023/03/25 01:11:00;;;;;;;;;;;;;;;8.55;78.91;97580.88;5068235;28;19946;-83
2023/03/25 01:13:25;;;;;;;;;;;;;;;8.58;79.79;97584.84;5091521;28;19939;-83
2023/03/25 01:15:50;;;;;;;;;;;;;;;8.59;78.80;97589.09;5092217;28;19927;-83
2023/03/25 01:18:16;;;;;;;;;;;;;;;8.59;79.16;97579.25;5074262;28;19929;-83
2023/03/25 01:20:42;;;;;;;;;;;;;;;8.59;79.26;97568.63;5087770;28;19916;-83
2023/03/25 01:23:08;;;;;;;;;;;;;;;8.60;79.12;97564.91;5089193;28;19923;-83
2023/03/25 01:25:33;;;;;;;;;;;;;;;8.58;79.84;97563.59;5061243;28;19932;-83
2023/03/25 01:27:59;;;;;;;;;;;;;;;8.46;79.30;97563.84;5068838;28;19920;-83
2023/03/25 01:30:24;;;;;;;;;;;;;;;8.46;79.92;97555.06;5086386;28;19980;-82
2023/03/25 01:32:50;;;;;;;;;;;;;;;8.55;79.86;97561.44;5069428;28;20017;-83
2023/03/25 01:35:15;;;;;;;;;;;;;;;8.39;80.02;97544.69;5090678;28;19927;-83
2023/03/25 01:37:43;;;;;;;;;;;;;;;8.45;80.59;97546.31;5056934;28;20010;-83
2023/03/25 01:40:09;;;;;;;;;;;;;;;8.37;80.00;97544.16;5066192;28;20594;-83
2023/03/25 01:42:34;;;;;;;;;;;;;;;8.51;79.67;97542.56;5068297;28;20401;-83
2023/03/25 01:45:12;;;;;;;;;;;;;;;8.62;79.81;97540.69;5056799;28;19920;-83
2023/03/25 01:47:38;;;;;;;;;;;;;;;8.52;80.07;97544.16;5087496;28;19956;-83
2023/03/25 01:50:03;;;;;;;;;;;;;;;8.55;79.42;97540.97;5081528;28;20347;-82
2023/03/25 01:52:29;;;;;;;;;;;;;;;8.48;79.95;97536.97;5070393;28;19931;-83
2023/03/25 01:54:56;;;;;;;;;;;;;;;8.37;80.66;97538.84;5074420;28;20039;-83
2023/03/25 01:57:22;;;;;;;;;;;;;;;8.46;79.92;97539.91;5068487;28;19928;-83
2023/03/25 01:59:49;;;;;;;;;;;;;;;8.51;79.78;97537.25;5065777;28;20054;-83
2023/03/25 02:02:17;;;;;;;;;;;;;;;8.53;80.08;97548.44;5081465;28;19924;-83
2023/03/25 02:04:43;;;;;;;;;;;;;;;8.59;79.33;97552.66;5080516;28;19969;-83
2023/03/25 02:07:09;;;;;;;;;;;;;;;8.47;80.14;97546.84;5084609;28;20046;-83
2023/03/25 02:09:34;;;;;;;;;;;;;;;8.57;79.54;97554.00;5088763;28;19931;-83
2023/03/25 02:11:59;;;;;;;;;;;;;;;8.58;80.16;97537.78;5086967;28;19924;-83
2023/03/25 02:14:26;;;;;;;;;;;;;;;8.47;80.30;97540.72;5067142;28;19926;-83
2023/03/25 02:17:10;;;;;;;;;;;;;;;8.58;80.26;97548.44;5069080;28;19916;-83
2023/03/25 02:20:08;;;;;;;;;;;;;;;8.43;80.15;97545.75;5089476;28;19916;-82
2023/03/25 02:22:36;;;;;;;;;;;;;;;8.48;79.66;97537.78;5079364;28;20006;-82
2023/03/25 02:25:18;;;;;;;;;;;;;;;8.40;79.92;97535.66;5072795;28;19924;-81
2023/03/25 02:27:49;;;;;;;;;;;;;;;8.48;80.30;97539.63;5087740;28;19927;-82
2023/03/25 02:30:20;;;;;;;;;;;;;;;8.52;79.38;97540.72;5086749;28;20348;-81
2023/03/25 02:32:45;;;;;;;;;;;;;;;8.57;79.27;97544.16;5075464;28;20371;-83
2023/03/25 02:35:23;;;;;;;;;;;;;;;8.28;80.55;97540.44;5086729;28;20068;-84
2023/03/25 02:37:59;;;;;;;;;;;;;;;8.57;79.98;97541.50;5084166;28;20029;-81
2023/03/25 02:40:34;;;;;;;;;;;;;;;8.55;79.61;97535.66;5086888;28;19924;-81
2023/03/25 02:43:03;;;;;;;;;;;;;;;8.51;79.77;97537.25;5072759;28;19971;-82
2023/03/25 02:45:29;;;;;;;;;;;;;;;8.54;80.08;97533.28;5074706;28;19920;-82
2023/03/25 02:47:58;;;;;;;;;;;;;;;8.55;79.98;97529.53;5090710;28;19970;-82
2023/03/25 02:50:36;;;;;;;;;;;;;;;8.48;79.73;97529.81;5091286;28;20283;-82
2023/03/25 02:53:07;;;;;;;;;;;;;;;8.50;80.39;97540.16;5091560;28;19916;-82
2023/03/25 02:55:33;;;;;;;;;;;;;;;8.57;80.18;97538.03;5072445;28;19920;-82
2023/03/25 02:58:02;;;;;;;;;;;;;;;8.49;79.74;97538.59;5074868;28;19931;-82
2023/03/25 03:00:29;;;;;;;;;;;;;;;8.46;80.55;97542.56;5075647;28;19924;-82
2023/03/25 03:02:58;;;;;;;;;;;;;;;8.39;80.45;97538.59;5090132;28;19923;-83
2023/03/25 03:05:31;;;;;;;;;;;;;;;8.49;80.49;97541.25;5070260;28;19954;-82
2023/03/25 03:08:03;;;;;;;;;;;;;;;8.46;79.61;97539.91;5088577;28;19916;-83
2023/03/25 03:10:43;;;;;;;;;;;;;;;8.52;79.74;97541.50;5089750;28;19916;-82
2023/03/25 03:13:08;;;;;;;;;;;;;;;8.24;79.53;97536.69;5064330;28;20443;-82
2023/03/25 03:15:45;;;;;;;;;;;;;;;8.40;79.71;97527.69;5070966;28;20422;-83
2023/03/25 03:18:20;;;;;;;;;;;;;;;8.22;79.64;97522.88;5083376;28;20004;-83
2023/03/25 03:21:05;;;;;;;;;;;;;;;8.30;79.50;97525.00;5072646;28;20253;-82
2023/03/25 03:23:35;;;;;;;;;;;;;;;8.41;79.22;97531.94;5088481;28;19917;-82
2023/03/25 03:26:10;;;;;;;;;;;;;;;8.49;79.28;97518.13;5083383;28;19977;-82
2023/03/25 03:28:58;;;;;;;;;;;;;;;8.35;79.12;97508.28;5086344;28;19984;-82
2023/03/25 03:31:24;;;;;;;;;;;;;;;8.30;80.12;97509.06;5057892;28;19916;-83
2023/03/25 03:33:52;;;;;;;;;;;;;;;8.28;80.60;97527.94;5071037;28;19965;-82
2023/03/25 03:36:23;;;;;;;;;;;;;;;8.42;79.73;97527.41;5085773;28;19916;-83
2023/03/25 03:38:50;;;;;;;;;;;;;;;8.48;79.38;97527.16;5089892;28;19923;-82
2023/03/25 03:41:18;;;;;;;;;;;;;;;8.39;79.98;97517.34;5069534;28;19928;-83
2023/03/25 03:43:53;;;;;;;;;;;;;;;8.46;79.39;97521.31;5084575;28;19982;-83
2023/03/25 03:46:21;;;;;;;;;;;;;;;8.33;79.30;97521.84;5087845;28;19924;-83
2023/03/25 03:48:50;;;;;;;;;;;;;;;8.34;80.21;97527.97;5070260;28;19927;-83
2023/03/25 03:51:18;;;;;;;;;;;;;;;8.27;79.90;97522.91;5086616;28;19923;-83
2023/03/25 03:53:50;;;;;;;;;;;;;;;8.09;80.39;97523.38;5065105;28;20279;-82
2023/03/25 03:56:24;;;;;;;;;;;;;;;8.17;79.88;97533.47;5071277;28;20653;-82
2023/03/25 03:58:53;;;;;;;;;;;;;;;8.06;79.98;97530.03;5087025;28;19928;-81
2023/03/25 04:01:26;;;;;;;;;;;;;;;8.15;79.84;97532.97;5090950;28;20043;-82
2023/03/25 04:03:55;;;;;;;;;;;;;;;8.11;80.20;97537.22;5086498;28;20288;-83
2023/03/25 04:06:26;;;;;;;;;;;;;;;8.14;79.54;97547.31;5072270;28;20057;-83
2023/03/25 04:08:51;;;;;;;;;;;;;;;8.01;80.13;97548.63;5071358;28;20406;-82
2023/03/25 04:11:22;;;;;;;;;;;;;;;8.10;79.89;97556.88;5089041;28;20115;-82
2023/03/25 04:13:50;;;;;;;;;;;;;;;8.04;80.22;97550.75;5084376;28;19917;-82
2023/03/25 04:16:16;;;;;;;;;;;;;;;8.05;79.86;97548.91;5088124;28;19916;-82
2023/03/25 04:18:42;;;;;;;;;;;;;;;8.12;79.57;97544.13;5094307;28;19935;-82
2023/03/25 04:21:08;;;;;;;;;;;;;;;8.17;79.94;97546.78;5094454;28;20398;-83
2023/03/25 04:23:36;;;;;;;;;;;;;;;7.93;80.19;97548.38;5087535;28;19935;-82
2023/03/25 04:26:02;;;;;;;;;;;;;;;8.10;79.86;97539.06;5067656;28;19916;-82
2023/03/25 04:28:28;;;;;;;;;;;;;;;8.04;80.54;97555.25;5086811;28;19920;-82
2023/03/25 04:30:54;;;;;;;;;;;;;;;8.03;80.03;97546.50;5085362;28;19974;-83
2023/03/25 04:33:23;;;;;;;;;;;;;;;7.86;80.30;97553.94;5072257;28;19946;-82
2023/03/25 04:35:49;;;;;;;;;;;;;;;7.95;81.12;97551.56;5080369;28;19920;-82
2023/03/25 04:38:15;;;;;;;;;;;;;;;8.02;79.70;97544.09;5070166;28;19923;-83
2023/03/25 04:40:45;;;;;;;;;;;;;;;8.02;79.77;97550.22;5058770;28;19920;-83
2023/03/25 04:43:11;;;;;;;;;;;;;;;8.02;79.90;97544.09;5090959;28;19917;-83
2023/03/25 04:45:36;;;;;;;;;;;;;;;8.00;79.74;97539.06;5075068;28;19920;-83
2023/03/25 04:48:04;;;;;;;;;;;;;;;8.05;79.46;97546.25;5069332;28;19924;-82
2023/03/25 04:50:32;;;;;;;;;;;;;;;8.06;80.32;97553.16;5068002;28;19920;-82
2023/03/25 04:53:01;;;;;;;;;;;;;;;7.96;79.47;97550.47;5068331;28;19920;-82
2023/03/25 04:55:26;;;;;;;;;;;;;;;8.05;79.62;97551.56;5086071;28;20521;-82
2023/03/25 04:57:52;;;;;;;;;;;;;;;7.96;80.16;97563.75;5057497;28;19999;-83
2023/03/25 05:00:19;;;;;;;;;;;;;;;7.87;80.67;97562.66;5057473;28;19920;-82
2023/03/25 05:02:45;;;;;;;;;;;;;;;8.01;79.88;97564.59;5072295;28;19920;-83
2023/03/25 05:05:17;;;;;;;;;;;;;;;8.03;79.69;97551.81;5086124;28;20003;-82
2023/03/25 05:07:48;;;;;;;;;;;;;;;7.86;80.60;97548.63;5085402;28;19977;-82
2023/03/25 05:10:13;;;;;;;;;;;;;;;8.01;80.23;97531.91;5071050;28;19959;-82
2023/03/25 05:12:39;;;;;;;;;;;;;;;8.01;80.76;97545.97;5070025;28;20340;-82
2023/03/25 05:15:05;;;;;;;;;;;;;;;7.56;82.19;97556.47;5067163;28;19916;-81
2023/03/25 05:17:30;;;;;;;;;;;;;;;7.57;82.21;97550.91;5069042;28;19998;-82
2023/03/25 05:19:55;;;;;;;;;;;;;;;7.79;81.98;97557.88;5089102;28;19951;-82
2023/03/25 05:22:21;;;;;;;;;;;;;;;7.77;80.79;97560.81;5067271;28;20409;-82
2023/03/25 05:24:46;;;;;;;;;;;;;;;7.93;80.75;97564.31;5078656;28;20046;-82
2023/03/25 05:27:11;;;;;;;;;;;;;;;7.93;81.34;97551.00;5053589;28;20015;-82
2023/03/25 05:29:37;;;;;;;;;;;;;;;7.77;81.23;97557.34;5064817;28;19939;-82
2023/03/25 05:32:03;;;;;;;;;;;;;;;7.78;80.97;97561.56;5063522;28;20430;-82
2023/03/25 05:34:29;;;;;;;;;;;;;;;7.50;82.62;97563.63;5087780;28;20402;-82
2023/03/25 05:36:55;;;;;;;;;;;;;;;7.80;81.73;97570.13;5055892;28;20227;-82
2023/03/25 05:39:24;;;;;;;;;;;;;;;7.88;80.45;97556.31;5083619;28;20208;-82
2023/03/25 05:41:54;;;;;;;;;;;;;;;7.92;80.80;97555.53;5068822;28;20264;-83
2023/03/25 05:44:19;;;;;;;;;;;;;;;7.76;81.81;97555.72;5066214;28;20404;-83
2023/03/25 05:46:44;;;;;;;;;;;;;;;7.75;80.50;97559.47;5071102;28;19920;-83
2023/03/25 05:49:12;;;;;;;;;;;;;;;7.83;80.49;97566.91;5083097;28;20022;-83
2023/03/25 05:51:38;;;;;;;;;;;;;;;7.80;80.37;97572.78;5047274;28;20251;-83
2023/03/25 05:54:07;;;;;;;;;;;;;;;7.67;81.04;97558.09;5082003;28;20475;-82
2023/03/25 05:56:33;;;;;;;;;;;;;;;7.60;81.25;97575.34;5086261;28;19920;-83
2023/03/25 05:58:58;;;;;;;;;;;;;;;7.84;80.04;97573.84;5079484;28;20019;-82
2023/03/25 06:01:23;;;;;;;;;;;;;;;7.53;80.39;97568.41;5060991;28;19924;-83
2023/03/25 06:03:49;;;;;;;;;;;;;;;7.70;80.56;97567.41;5066665;28;19924;-83
2023/03/25 06:06:17;;;;;;;;;;;;;;;7.78;80.25;97573.00;5078982;28;20462;-83
2023/03/25 06:08:50;;;;;;;;;;;;;;;7.79;80.46;97576.47;5085710;28;19998;-83
2023/03/25 06:11:17;;;;;;;;;;;;;;;7.81;80.34;97563.72;5084524;28;19917;-83
2023/03/25 06:13:49;;;;;;;;;;;;;;;7.85;80.69;97572.75;5088919;28;19935;-83
2023/03/25 06:16:29;;;;;;;;;;;;;;;7.89;79.11;97573.81;5089255;28;19916;-83
2023/03/25 06:19:00;;;;;;;;;;;;;;;7.69;79.27;97587.06;5091348;28;19924;-83
2023/03/25 06:21:26;;;;;;;;;;;;;;;7.68;80.36;97588.13;5071193;28;20025;-83
2023/03/25 06:23:56;;;;;;;;;;;;;;;7.43;80.37;97597.56;5082881;28;20011;-83
2023/03/25 06:26:22;;;;;;;;;;;;;;;7.70;79.57;97586.81;5084421;28;19920;-83
2023/03/25 06:28:47;;;;;;;;;;;;;;;7.62;79.56;97597.13;5086892;28;19968;-83
2023/03/25 06:31:21;;;;;;;;;;;;;;;7.62;80.18;97592.63;5087163;28;19916;-83
2023/03/25 06:33:47;;;;;;;;;;;;;;;7.50;80.67;97598.16;5068067;28;20388;-83
2023/03/25 06:36:14;;;;;;;;;;;;;;;7.64;80.10;97593.16;5086334;28;19938;-83
2023/03/25 06:38:39;;;;;;;;;;;;;;;7.67;79.28;97597.13;5064565;28;19942;-83
2023/03/25 06:41:06;;;;;;;;;;;;;;;7.63;79.24;97604.81;5087681;28;20015;-83
2023/03/25 06:43:31;;;;;;;;;;;;;;;7.67;79.52;97607.75;5083880;28;19920;-83
2023/03/25 06:45:56;;;;;;;;;;;;;;;7.68;79.55;97598.75;5086829;28;19924;-82
2023/03/25 06:48:22;;;;;;;;;;;;;;;7.68;79.86;97612.81;5062562;28;19963;-83
2023/03/25 06:50:47;;;;;;;;;;;;;;;7.65;80.00;97596.59;5053385;28;19920;-83
2023/03/25 06:53:12;;;;;;;;;;;;;;;7.63;80.37;97601.38;5068534;28;19924;-83
2023/03/25 06:55:38;;;;;;;;;;;;;;;7.70;79.36;97616.00;5089993;28;19917;-83
2023/03/25 06:58:04;;;;;;;;;;;;;;;7.80;78.79;97612.59;5084703;28;19920;-82
2023/03/25 07:00:29;;;;;;;;;;;;;;;7.89;79.38;97614.47;5084360;28;19916;-83
2023/03/25 07:02:55;;;;;;;;;;;;;;;7.86;78.62;97598.28;5081059;28;19962;-83
2023/03/25 07:05:20;;;;;;;;;;;;;;;8.02;78.65;97600.69;5078565;28;20019;-83
2023/03/25 07:07:45;;;;;;;;;;;;;;;7.86;78.49;97603.59;5069679;28;19920;-82
2023/03/25 07:10:11;;;;;;;;;;;;;;;7.83;78.83;97593.47;5059848;28;20024;-82
2023/03/25 07:12:37;;;;;;;;;;;;;;;7.95;78.46;97600.16;5064798;28;19951;-83
2023/03/25 07:15:02;;;;;;;;;;;;;;;7.99;78.30;97595.13;5085070;28;19928;-82
2023/03/25 07:17:27;;;;;;;;;;;;;;;7.93;78.08;97580.25;5065401;28;20044;-83
2023/03/25 07:19:52;;;;;;;;;;;;;;;7.89;78.64;97616.34;5061020;28;19973;-82
2023/03/25 07:22:18;;;;;;;;;;;;;;;7.69;78.62;97608.31;5071789;28;20269;-83
2023/03/25 07:24:43;;;;;;;;;;;;;;;7.54;79.47;97607.19;5073502;28;19941;-82
2023/03/25 07:27:09;;;;;;;;;;;;;;;7.72;79.54;97607.78;5065279;28;19928;-83
2023/03/25 07:29:35;;;;;;;;;;;;;;;7.76;79.43;97603.53;5085506;28;20285;-82
2023/03/25 07:32:00;;;;;;;;;;;;;;;7.82;78.90;97607.84;5085545;28;20066;-83
2023/03/25 07:34:25;;;;;;;;;;;;;;;7.83;79.46;97609.41;5082453;28;19923;-83
2023/03/25 07:36:51;;;;;;;;;;;;;;;7.90;78.24;97597.50;5063597;28;20008;-82
2023/03/25 07:39:17;;;;;;;;;;;;;;;7.95;78.32;97602.03;5089447;28;19987;-82
2023/03/25 07:41:42;;;;;;;;;;;;;;;8.03;78.39;97599.66;5086297;28;19979;-82
2023/03/25 07:44:08;;;;;;;;;;;;;;;8.01;77.69;97595.66;5085675;28;19944;-82
2023/03/25 07:46:33;;;;;;;;;;;;;;;8.01;78.54;97593.00;5072446;28;19927;-83
2023/03/25 07:48:58;;;;;;;;;;;;;;;7.96;78.60;97588.47;5059818;28;19920;-82
2023/03/25 07:51:23;;;;;;;;;;;;;;;8.04;78.64;97593.25;5085903;28;19920;-83
2023/03/25 07:53:49;;;;;;;;;;;;;;;8.19;78.58;97606.59;5090288;28;19970;-82
2023/03/25 07:56:14;;;;;;;;;;;;;;;8.16;78.54;97593.84;5094584;28;19955;-82
2023/03/25 07:58:40;;;;;;;;;;;;;;;8.26;77.67;97590.41;5066482;28;19982;-82
2023/03/25 08:01:06;;;;;;;;;;;;;;;8.29;78.36;97595.22;5089945;28;19924;-82
2023/03/25 08:03:32;;;;;;;;;;;;;;;8.29;78.50;97613.81;5088478;28;20199;-82
2023/03/25 08:05:59;;;;;;;;;;;;;;;8.27;78.46;97610.63;5069414;28;19927;-82
2023/03/25 08:08:24;;;;;;;;;;;;;;;8.27;79.25;97602.66;5092930;28;20000;-82
2023/03/25 08:10:50;;;;;;;;;;;;;;;8.28;78.41;97606.88;5072945;28;19928;-82
2023/03/25 08:13:15;;;;;;;;;;;;;;;8.40;78.57;97607.44;5085405;28;19923;-82
2023/03/25 08:15:40;;;;;;;;;;;;;;;8.36;78.25;97613.56;5090728;28;20264;-82
2023/03/25 08:18:06;;;;;;;;;;;;;;;8.41;78.20;97605.59;5086060;28;19924;-82
2023/03/25 08:20:32;;;;;;;;;;;;;;;8.49;78.00;97615.69;5085702;28;20054;-83
2023/03/25 08:22:57;;;;;;;;;;;;;;;8.55;78.27;97612.78;5089947;28;20126;-83
2023/03/25 08:25:23;;;;;;;;;;;;;;;8.54;78.20;97608.50;5082709;28;19916;-83
2023/03/25 08:27:48;;;;;;;;;;;;;;;8.53;78.21;97614.91;5081146;28;20052;-82
2023/03/25 08:30:14;;;;;;;;;;;;;;;8.48;78.71;97604.25;5068905;28;19920;-82
2023/03/25 08:32:40;;;;;;;;;;;;;;;8.44;78.59;97610.38;5090523;28;19924;-82
2023/03/25 08:35:05;;;;;;;;;;;;;;;8.22;78.78;97605.25;5098581;28;19923;-82
2023/03/25 08:37:34;;;;;;;;;;;;;;;8.11;79.21;97609.75;5076624;28;20000;-83
2023/03/25 08:39:59;;;;;;;;;;;;;;;8.25;79.63;97600.25;5075549;28;19989;-82
2023/03/25 08:42:25;;;;;;;;;;;;;;;8.33;79.31;97612.22;5069119;28;19984;-82
2023/03/25 08:44:50;;;;;;;;;;;;;;;8.44;78.86;97584.59;5086893;28;19926;-81
2023/03/25 08:47:15;;;;;;;;;;;;;;;8.53;78.63;97598.94;5064845;28;19920;-81
2023/03/25 08:49:40;;;;;;;;;;;;;;;8.53;78.92;97604.28;5085577;28;20405;-81
2023/03/25 08:52:07;;;;;;;;;;;;;;;8.61;79.12;97600.25;5086685;28;19928;-81
2023/03/25 08:54:32;;;;;;;;;;;;;;;8.68;78.79;97596.28;5088959;28;19920;-81
2023/03/25 08:56:58;;;;;;;;;;;;;;;8.75;79.02;97598.69;5073514;28;19928;-81
2023/03/25 08:59:23;;;;;;;;;;;;;;;8.69;78.50;97603.19;5065114;28;19931;-81
2023/03/25 09:01:48;;;;;;;;;;;;;;;8.76;79.08;97597.59;5068901;28;19927;-82
2023/03/25 09:04:13;;;;;;;;;;;;;;;8.78;78.61;97598.94;5085468;28;20001;-81
2023/03/25 09:06:39;;;;;;;;;;;;;;;8.79;78.25;97605.88;5089202;28;20304;-81
2023/03/25 09:09:05;;;;;;;;;;;;;;;8.87;77.50;97597.34;5056813;28;19971;-81
2023/03/25 09:11:31;;;;;;;;;;;;;;;8.88;78.05;97606.13;5086206;28;19937;-81
2023/03/25 09:13:56;;;;;;;;;;;;;;;8.79;77.77;97605.88;5093379;28;19916;-82
2023/03/25 09:16:22;;;;;;;;;;;;;;;8.90;77.94;97611.97;5071317;28;19928;-82
2023/03/25 09:18:47;;;;;;;;;;;;;;;8.83;78.24;97601.59;5072154;28;19936;-81
2023/03/25 09:21:12;;;;;;;;;;;;;;;8.92;77.39;97605.31;5074650;28;19957;-82
2023/03/25 09:23:37;;;;;;;;;;;;;;;9.05;76.57;97603.97;5084057;28;20379;-81
2023/03/25 09:26:04;;;;;;;;;;;;;;;9.10;76.88;97595.19;5071492;28;19934;-82
2023/03/25 09:28:29;;;;;;;;;;;;;;;9.14;76.21;97598.88;5083814;28;19974;-81
2023/03/25 09:30:55;;;;;;;;;;;;;;;9.12;76.18;97591.19;5085349;28;19970;-82
2023/03/25 09:33:20;;;;;;;;;;;;;;;9.09;77.04;97597.03;5075661;28;19943;-81
2023/03/25 09:35:46;;;;;;;;;;;;;;;9.30;75.67;97608.44;5073980;28;19932;-82
2023/03/25 09:38:11;;;;;;;;;;;;;;;9.32;75.30;97598.31;5050269;28;19928;-82
2023/03/25 09:40:39;;;;;;;;;;;;;;;9.22;76.01;97601.03;5071538;28;19927;-83
2023/03/25 09:43:20;;;;;;;;;;;;;;;9.30;75.21;97603.94;5063804;28;19939;-82
2023/03/25 09:45:47;;;;;;;;;;;;;;;9.16;75.31;97604.75;5071182;28;20011;-82
2023/03/25 09:48:27;;;;;;;;;;;;;;;8.96;75.39;97603.72;5056907;28;19920;-82
2023/03/25 09:50:52;;;;;;;;;;;;;;;8.94;76.36;97603.19;5082314;28;20376;-82
2023/03/25 09:53:36;;;;;;;;;;;;;;;8.89;76.28;97597.06;5068607;28;19924;-82
2023/03/25 09:56:03;;;;;;;;;;;;;;;8.96;76.07;97608.22;5071421;28;20291;-82
2023/03/25 09:58:48;;;;;;;;;;;;;;;9.04;76.27;97605.03;5051040;28;19924;-82
2023/03/25 10:01:25;;;;;;;;;;;;;;;8.93;76.55;97614.09;5071581;28;19927;-83
2023/03/25 10:03:51;;;;;;;;;;;;;;;8.79;78.21;97611.19;5083599;28;19986;-83
2023/03/25 10:06:18;;;;;;;;;;;;;;;8.68;78.73;97616.75;5087696;28;19916;-82
2023/03/25 10:08:43;;;;;;;;;;;;;;;8.61;78.68;97630.31;5049233;28;19927;-83
2023/03/25 10:11:18;;;;;;;;;;;;;;;8.68;79.67;97644.16;5069756;28;19917;-84
2023/03/25 10:13:44;;;;;;;;;;;;;;;8.51;80.39;97640.16;5054914;28;19926;-82
2023/03/25 10:16:28;;;;;;;;;;;;;;;8.32;81.20;97644.41;5079624;28;19919;-83
2023/03/25 10:19:03;;;;;;;;;;;;;;;8.18;81.42;97655.50;5091104;28;19924;-82
2023/03/25 10:21:38;;;;;;;;;;;;;;;8.02;82.19;97645.06;5087994;28;19924;-82
2023/03/25 10:24:04;;;;;;;;;;;;;;;8.13;82.63;97652.00;5086025;28;19925;-82
2023/03/25 10:26:35;;;;;;;;;;;;;;;8.10;82.62;97623.31;5085963;28;20406;-81
2023/03/25 10:29:05;;;;;;;;;;;;;;;8.24;82.23;97627.06;5073011;28;19926;-81
2023/03/25 10:31:32;;;;;;;;;;;;;;;8.42;82.16;97607.19;5089291;28;19927;-82
2023/03/25 10:34:02;;;;;;;;;;;;;;;8.27;81.06;97611.44;5087735;28;19923;-82
2023/03/25 10:36:33;;;;;;;;;;;;;;;8.28;81.94;97609.53;5083704;28;19948;-82
2023/03/25 10:39:00;;;;;;;;;;;;;;;8.33;81.69;97612.22;5064714;28;20407;-82
2023/03/25 10:41:29;;;;;;;;;;;;;;;8.34;83.00;97608.50;5070236;28;19916;-82
2023/03/25 10:43:55;;;;;;;;;;;;;;;8.39;82.15;97608.50;5090684;28;20364;-81
2023/03/25 10:46:20;;;;;;;;;;;;;;;8.53;81.34;97617.56;5074099;28;19921;-82
2023/03/25 10:48:45;;;;;;;;;;;;;;;8.49;79.94;97623.69;5084480;28;20056;-82
2023/03/25 10:51:12;;;;;;;;;;;;;;;8.49;78.40;97624.47;5081741;28;19928;-83
2023/03/25 10:53:45;;;;;;;;;;;;;;;8.55;79.66;97627.94;5068192;28;19947;-82
2023/03/25 10:56:16;;;;;;;;;;;;;;;8.68;78.73;97614.91;5067869;28;19928;-81
2023/03/25 10:58:44;;;;;;;;;;;;;;;8.74;77.65;97618.34;5086795;28;20364;-82
2023/03/25 11:01:11;;;;;;;;;;;;;;;8.81;76.98;97603.72;5086090;28;19931;-82
2023/03/25 11:03:38;;;;;;;;;;;;;;;8.97;78.22;97615.16;5091788;28;19965;-81
2023/03/25 11:06:04;;;;;;;;;;;;;;;9.11;75.63;97610.09;5089905;28;19939;-81
2023/03/25 11:08:29;;;;;;;;;;;;;;;9.05;74.62;97594.13;5095045;28;19916;-82
2023/03/25 11:10:55;;;;;;;;;;;;;;;8.89;73.85;97597.84;5095291;28;19941;-81
2023/03/25 11:13:25;;;;;;;;;;;;;;;8.99;74.21;97600.53;5076809;28;20616;-81
2023/03/25 11:15:52;;;;;;;;;;;;;;;9.15;74.28;97593.31;5069472;28;20704;-82
2023/03/25 11:18:21;;;;;;;;;;;;;;;9.28;73.44;97600.75;5080822;28;19920;-83
2023/03/25 11:20:50;;;;;;;;;;;;;;;9.46;72.95;97594.81;5092123;28;19924;-82
2023/03/25 11:23:21;;;;;;;;;;;;;;;9.52;72.41;97600.94;5077278;28;19959;-82
2023/03/25 11:25:47;;;;;;;;;;;;;;;9.56;72.76;97583.34;5073571;28;20044;-82
2023/03/25 11:28:17;;;;;;;;;;;;;;;9.52;72.13;97580.41;5091047;28;19978;-83
2023/03/25 11:31:01;;;;;;;;;;;;;;;9.44;71.87;97575.63;5075185;28;19920;-82
2023/03/25 11:33:26;;;;;;;;;;;;;;;9.55;70.83;97584.38;5096606;28;20297;-82
2023/03/25 11:35:52;;;;;;;;;;;;;;;9.83;72.43;97589.06;5072122;28;19942;-81
2023/03/25 11:38:27;;;;;;;;;;;;;;;9.73;71.58;97587.25;5085390;28;20407;-81
2023/03/25 11:40:54;;;;;;;;;;;;;;;9.74;71.44;97588.06;5090919;28;19947;-82
2023/03/25 11:43:27;;;;;;;;;;;;;;;9.73;70.93;97584.59;5095095;28;19924;-82
2023/03/25 11:45:52;;;;;;;;;;;;;;;9.65;70.54;97592.34;5071429;28;20283;-82
2023/03/25 11:48:17;;;;;;;;;;;;;;;9.55;70.94;97573.72;5095195;28;19917;-82
2023/03/25 11:50:45;;;;;;;;;;;;;;;9.70;71.03;97573.66;5093242;28;19922;-82
2023/03/25 11:53:15;;;;;;;;;;;;;;;9.76;70.78;97572.59;5072220;28;19924;-82
2023/03/25 11:55:44;;;;;;;;;;;;;;;9.69;69.39;97572.09;5065131;28;19924;-82
2023/03/25 11:58:14;;;;;;;;;;;;;;;9.79;70.41;97582.69;5095811;28;20026;-82
2023/03/25 12:00:40;;;;;;;;;;;;;;;9.66;69.98;97591.28;5089435;28;19951;-82
2023/03/25 12:03:17;;;;;;;;;;;;;;;9.43;69.69;97591.91;5097397;28;19939;-82
2023/03/25 12:05:55;;;;;;;;;;;;;;;9.52;70.21;97603.59;5080585;28;20421;-82
2023/03/25 12:08:21;;;;;;;;;;;;;;;9.47;70.79;97598.28;5074748;28;19920;-81
2023/03/25 12:10:49;;;;;;;;;;;;;;;9.54;71.82;97596.13;5090006;28;20295;-82
2023/03/25 12:13:17;;;;;;;;;;;;;;;9.86;70.90;97585.84;5086163;28;19920;-82
2023/03/25 12:15:45;;;;;;;;;;;;;;;9.82;70.96;97579.47;5087469;28;19955;-82
2023/03/25 12:18:33;;;;;;;;;;;;;;;9.95;71.57;97583.41;5089348;28;19967;-83
2023/03/25 12:21:17;;;;;;;;;;;;;;;10.10;71.69;97591.31;5087106;28;19952;-82
2023/03/25 12:24:07;;;;;;;;;;;;;;;9.98;72.21;97580.97;5073214;28;19999;-82
2023/03/25 12:26:44;;;;;;;;;;;;;;;10.02;71.72;97579.38;5091073;28;20010;-81
2023/03/25 12:29:12;;;;;;;;;;;;;;;10.13;71.28;97569.47;5087771;28;19927;-82
2023/03/25 12:31:47;;;;;;;;;;;;;;;10.53;71.39;97566.50;5088373;28;19916;-82
2023/03/25 12:34:19;;;;;;;;;;;;;;;10.66;71.14;97565.88;5069746;28;20467;-82
2023/03/25 12:36:53;;;;;;;;;;;;;;;10.59;71.22;97562.75;5083910;28;19962;-81
2023/03/25 12:39:25;;;;;;;;;;;;;;;10.61;70.03;97575.78;5069972;28;19935;-83
2023/03/25 12:41:53;;;;;;;;;;;;;;;10.38;70.00;97564.75;5088999;28;19920;-82
2023/03/25 12:44:33;;;;;;;;;;;;;;;10.33;68.40;97564.78;5092634;28;20368;-82
2023/03/25 12:47:09;;;;;;;;;;;;;;;10.10;69.23;97572.66;5067041;28;20003;-82
2023/03/25 12:49:34;;;;;;;;;;;;;;;9.97;69.22;97566.06;5088044;28;19929;-81
2023/03/25 12:52:15;;;;;;;;;;;;;;;9.88;68.25;97549.06;5088646;28;19920;-81
2023/03/25 12:54:49;;;;;;;;;;;;;;;9.99;68.09;97555.94;5091910;28;19962;-82
2023/03/25 12:57:33;;;;;;;;;;;;;;;10.08;68.46;97548.94;5091492;28;19916;-82
2023/03/25 13:00:19;;;;;;;;;;;;;;;10.44;68.12;97550.31;5087620;28;19938;-83
2023/03/25 13:02:47;;;;;;;;;;;;;;;10.66;68.02;97549.09;5056736;28;19916;-83